Terminal Aerodrome Forecast
Issued by NWS Jackson, MS

Home | Current Version | Previous Version | Text Only | Print | Product List | Glossary On
Versions: 1 2 3 4 5 6 7 8 9 10 11 12 13
000
FTUS44 KJAN 211720
TAFJAN
TAF
KJAN 211720Z 2118/2218 14010G21KT P6SM SCT060 BKN250
     FM220000 14008KT P6SM BKN090
     FM221000 15009KT P6SM BKN025
     FM221200 14008KT P6SM VCTS BKN015CB=

USA.gov is the U.S. government's official web portal to all federal, state and local government web resources and services.